sensor_id;sensor_type;location;lat;lon;timestamp;P1;P2;P0
13030;PMS7003;6582;54.644;9.760;2023-04-22T00:00:01;153.2;146.5;
13030;PMS7003;6582;54.644;9.760;2023-04-22T00:05:04;170.1;166.4;
13030;PMS7003;6582;54.644;9.760;2023-04-22T00:10:01;171.1;168.4;
13030;PMS7003;6582;54.644;9.760;2023-04-22T00:15:02;130.2;126.2;
13030;PMS7003;6582;54.644;9.760;2023-04-22T00:20:02;125.7;121.3;
13030;PMS7003;6582;54.644;9.760;2023-04-22T00:25:07;115.2;110.7;
13030;PMS7003;6582;54.644;9.760;2023-04-22T00:30:02;107.7;103.2;
13030;PMS7003;6582;54.644;9.760;2023-04-22T00:35:01;112.9;109.9;
13030;PMS7003;6582;54.644;9.760;2023-04-22T00:40:02;139.9;138.3;
13030;PMS7003;6582;54.644;9.760;2023-04-22T00:45:08;172.7;172.1;
13030;PMS7003;6582;54.644;9.760;2023-04-22T00:50:02;190.8;190.2;
13030;PMS7003;6582;54.644;9.760;2023-04-22T00:55:03;219.8;219.2;
13030;PMS7003;6582;54.644;9.760;2023-04-22T01:00:07;255.0;254.8;
13030;PMS7003;6582;54.644;9.760;2023-04-22T01:05:02;264.1;263.9;
13030;PMS7003;6582;54.644;9.760;2023-04-22T01:10:07;269.3;269.1;
13030;PMS7003;6582;54.644;9.760;2023-04-22T01:15:05;285.9;285.5;
13030;PMS7003;6582;54.644;9.760;2023-04-22T01:20:01;287.4;286.8;
13030;PMS7003;6582;54.644;9.760;2023-04-22T01:25:02;284.1;283.7;
13030;PMS7003;6582;54.644;9.760;2023-04-22T01:30:02;286.6;286.3;
13030;PMS7003;6582;54.644;9.760;2023-04-22T01:35:02;286.3;286.0;
13030;PMS7003;6582;54.644;9.760;2023-04-22T01:40:02;286.7;286.4;
13030;PMS7003;6582;54.644;9.760;2023-04-22T01:50:01;281.9;281.9;
13030;PMS7003;6582;54.644;9.760;2023-04-22T01:55:06;275.0;275.0;
13030;PMS7003;6582;54.644;9.760;2023-04-22T02:00:07;265.5;265.5;
13030;PMS7003;6582;54.644;9.760;2023-04-22T02:05:02;250.4;250.2;
13030;PMS7003;6582;54.644;9.760;2023-04-22T02:10:02;221.8;221.6;
13030;PMS7003;6582;54.644;9.760;2023-04-22T02:15:01;210.8;210.4;
13030;PMS7003;6582;54.644;9.760;2023-04-22T02:20:02;194.2;193.6;
13030;PMS7003;6582;54.644;9.760;2023-04-22T02:25:01;172.1;171.4;
13030;PMS7003;6582;54.644;9.760;2023-04-22T02:30:01;180.5;180.0;
13030;PMS7003;6582;54.644;9.760;2023-04-22T02:35:01;175.9;175.5;
13030;PMS7003;6582;54.644;9.760;2023-04-22T02:40:01;158.9;158.6;
13030;PMS7003;6582;54.644;9.760;2023-04-22T02:45:02;153.1;153.0;
13030;PMS7003;6582;54.644;9.760;2023-04-22T02:50:01;150.1;149.7;
13030;PMS7003;6582;54.644;9.760;2023-04-22T03:00:02;123.0;122.4;
13030;PMS7003;6582;54.644;9.760;2023-04-22T03:05:02;122.0;121.4;
13030;PMS7003;6582;54.644;9.760;2023-04-22T03:10:01;124.2;123.1;
13030;PMS7003;6582;54.644;9.760;2023-04-22T03:15:02;131.8;130.6;
13030;PMS7003;6582;54.644;9.760;2023-04-22T03:20:01;137.0;136.1;
13030;PMS7003;6582;54.644;9.760;2023-04-22T03:25:07;150.8;150.2;
13030;PMS7003;6582;54.644;9.760;2023-04-22T03:30:04;167.2;166.1;
13030;PMS7003;6582;54.644;9.760;2023-04-22T03:35:01;172.0;171.4;
13030;PMS7003;6582;54.644;9.760;2023-04-22T03:45:02;172.3;171.7;
13030;PMS7003;6582;54.644;9.760;2023-04-22T03:50:06;177.8;177.2;
13030;PMS7003;6582;54.644;9.760;2023-04-22T03:55:01;175.0;174.4;
13030;PMS7003;6582;54.644;9.760;2023-04-22T04:00:04;167.5;167.5;
13030;PMS7003;6582;54.644;9.760;2023-04-22T04:05:02;176.2;176.2;
13030;PMS7003;6582;54.644;9.760;2023-04-22T04:10:06;180.2;179.8;
13030;PMS7003;6582;54.644;9.760;2023-04-22T04:15:01;183.0;182.6;
13030;PMS7003;6582;54.644;9.760;2023-04-22T04:20:06;182.8;182.4;
13030;PMS7003;6582;54.644;9.760;2023-04-22T04:25:01;184.0;183.3;
13030;PMS7003;6582;54.644;9.760;2023-04-22T04:30:01;185.1;184.3;
13030;PMS7003;6582;54.644;9.760;2023-04-22T04:35:02;187.2;186.7;
13030;PMS7003;6582;54.644;9.760;2023-04-22T04:40:01;190.8;190.4;
13030;PMS7003;6582;54.644;9.760;2023-04-22T04:50:01;197.1;196.3;
13030;PMS7003;6582;54.644;9.760;2023-04-22T04:55:01;208.4;207.5;
13030;PMS7003;6582;54.644;9.760;2023-04-22T05:00:01;211.4;210.6;
13030;PMS7003;6582;54.644;9.760;2023-04-22T05:05:02;215.8;215.0;
13030;PMS7003;6582;54.644;9.760;2023-04-22T05:10:07;215.2;214.5;
13030;PMS7003;6582;54.644;9.760;2023-04-22T05:15:02;219.5;219.1;
13030;PMS7003;6582;54.644;9.760;2023-04-22T05:25:02;194.4;194.0;
13030;PMS7003;6582;54.644;9.760;2023-04-22T05:30:02;169.4;167.0;
13030;PMS7003;6582;54.644;9.760;2023-04-22T05:55:06;137.4;134.0;
13030;PMS7003;6582;54.644;9.760;2023-04-22T06:00:02;115.5;109.7;
13030;PMS7003;6582;54.644;9.760;2023-04-22T06:05:08;108.5;101.1;
13030;PMS7003;6582;54.644;9.760;2023-04-22T06:10:07;106.4;100.4;
13030;PMS7003;6582;54.644;9.760;2023-04-22T06:15:02;108.9;103.6;
13030;PMS7003;6582;54.644;9.760;2023-04-22T06:20:02;110.5;105.6;
13030;PMS7003;6582;54.644;9.760;2023-04-22T06:25:02;122.0;118.4;
13030;PMS7003;6582;54.644;9.760;2023-04-22T06:30:01;131.9;130.4;
13030;PMS7003;6582;54.644;9.760;2023-04-22T06:35:01;138.2;136.4;
13030;PMS7003;6582;54.644;9.760;2023-04-22T06:40:01;139.4;138.2;
13030;PMS7003;6582;54.644;9.760;2023-04-22T06:45:06;130.9;129.0;
13030;PMS7003;6582;54.644;9.760;2023-04-22T06:50:01;119.9;117.8;
13030;PMS7003;6582;54.644;9.760;2023-04-22T06:55:02;109.6;107.0;
13030;PMS7003;6582;54.644;9.760;2023-04-22T07:00:03;99.8;95.4;
13030;PMS7003;6582;54.644;9.760;2023-04-22T07:05:07;91.2;84.5;
13030;PMS7003;6582;54.644;9.760;2023-04-22T07:10:08;89.0;82.1;
13030;PMS7003;6582;54.644;9.760;2023-04-22T07:15:01;87.0;78.8;
13030;PMS7003;6582;54.644;9.760;2023-04-22T07:20:06;92.9;85.4;
13030;PMS7003;6582;54.644;9.760;2023-04-22T07:25:02;103.4;98.2;
13030;PMS7003;6582;54.644;9.760;2023-04-22T07:30:01;115.5;112.6;
13030;PMS7003;6582;54.644;9.760;2023-04-22T07:35:01;135.2;133.4;
13030;PMS7003;6582;54.644;9.760;2023-04-22T07:40:01;154.8;154.8;
13030;PMS7003;6582;54.644;9.760;2023-04-22T07:45:06;167.2;167.1;
13030;PMS7003;6582;54.644;9.760;2023-04-22T07:50:02;179.0;178.8;
13030;PMS7003;6582;54.644;9.760;2023-04-22T07:55:01;179.7;179.5;
13030;PMS7003;6582;54.644;9.760;2023-04-22T08:00:04;172.6;172.2;
13030;PMS7003;6582;54.644;9.760;2023-04-22T08:05:01;167.9;166.4;
13030;PMS7003;6582;54.644;9.760;2023-04-22T08:10:01;160.4;158.5;
13030;PMS7003;6582;54.644;9.760;2023-04-22T08:15:01;149.6;147.0;
13030;PMS7003;6582;54.644;9.760;2023-04-22T08:20:01;147.6;144.1;
13030;PMS7003;6582;54.644;9.760;2023-04-22T08:25:02;142.9;138.7;
13030;PMS7003;6582;54.644;9.760;2023-04-22T08:30:06;134.8;130.4;
13030;PMS7003;6582;54.644;9.760;2023-04-22T08:35:06;142.1;138.2;
13030;PMS7003;6582;54.644;9.760;2023-04-22T08:40:01;137.3;132.5;
13030;PMS7003;6582;54.644;9.760;2023-04-22T08:45:03;133.2;127.8;
13030;PMS7003;6582;54.644;9.760;2023-04-22T08:50:01;129.9;123.8;
13030;PMS7003;6582;54.644;9.760;2023-04-22T08:55:01;128.3;122.3;
13030;PMS7003;6582;54.644;9.760;2023-04-22T09:00:02;110.6;102.4;
13030;PMS7003;6582;54.644;9.760;2023-04-22T09:05:06;108.2;100.0;
13030;PMS7003;6582;54.644;9.760;2023-04-22T09:10:07;104.4;96.0;
13030;PMS7003;6582;54.644;9.760;2023-04-22T09:15:01;98.5;90.0;
13030;PMS7003;6582;54.644;9.760;2023-04-22T09:20:03;98.6;90.4;
13030;PMS7003;6582;54.644;9.760;2023-04-22T09:25:03;99.4;91.6;
13030;PMS7003;6582;54.644;9.760;2023-04-22T09:30:03;106.4;99.1;
13030;PMS7003;6582;54.644;9.760;2023-04-22T09:35:01;108.6;101.2;
13030;PMS7003;6582;54.644;9.760;2023-04-22T09:40:01;110.5;102.4;
13030;PMS7003;6582;54.644;9.760;2023-04-22T09:45:03;116.9;107.9;
13030;PMS7003;6582;54.644;9.760;2023-04-22T09:55:02;114.8;105.4;
13030;PMS7003;6582;54.644;9.760;2023-04-22T10:00:01;114.4;105.2;
13030;PMS7003;6582;54.644;9.760;2023-04-22T10:05:01;121.4;112.4;
13030;PMS7003;6582;54.644;9.760;2023-04-22T10:10:02;123.2;114.2;
13030;PMS7003;6582;54.644;9.760;2023-04-22T10:15:02;137.6;127.8;
13030;PMS7003;6582;54.644;9.760;2023-04-22T10:20:08;148.9;139.2;
13030;PMS7003;6582;54.644;9.760;2023-04-22T10:25:01;163.8;153.5;
13030;PMS7003;6582;54.644;9.760;2023-04-22T10:30:07;177.0;167.2;
13030;PMS7003;6582;54.644;9.760;2023-04-22T10:35:09;181.3;170.8;
13030;PMS7003;6582;54.644;9.760;2023-04-22T10:40:05;180.4;170.2;
13030;PMS7003;6582;54.644;9.760;2023-04-22T10:45:02;177.8;167.6;
13030;PMS7003;6582;54.644;9.760;2023-04-22T11:25:01;135.8;125.2;
13030;PMS7003;6582;54.644;9.760;2023-04-22T11:30:02;130.4;119.4;
13030;PMS7003;6582;54.644;9.760;2023-04-22T11:35:03;127.1;116.1;
13030;PMS7003;6582;54.644;9.760;2023-04-22T11:40:16;127.0;116.6;
13030;PMS7003;6582;54.644;9.760;2023-04-22T11:45:01;123.0;113.0;
13030;PMS7003;6582;54.644;9.760;2023-04-22T11:50:02;118.5;109.0;
13030;PMS7003;6582;54.644;9.760;2023-04-22T11:55:01;114.0;105.4;
13030;PMS7003;6582;54.644;9.760;2023-04-22T12:00:01;113.6;105.4;
13030;PMS7003;6582;54.644;9.760;2023-04-22T12:05:01;106.5;98.6;
13030;PMS7003;6582;54.644;9.760;2023-04-22T12:10:03;104.2;96.0;
13030;PMS7003;6582;54.644;9.760;2023-04-22T12:15:07;99.1;90.4;
13030;PMS7003;6582;54.644;9.760;2023-04-22T12:20:01;95.2;86.2;
13030;PMS7003;6582;54.644;9.760;2023-04-22T12:25:06;88.1;79.4;
13030;PMS7003;6582;54.644;9.760;2023-04-22T12:30:01;86.0;77.0;
13030;PMS7003;6582;54.644;9.760;2023-04-22T12:35:01;83.4;75.0;
13030;PMS7003;6582;54.644;9.760;2023-04-22T12:40:06;83.6;75.3;
13030;PMS7003;6582;54.644;9.760;2023-04-22T12:45:01;83.4;75.0;
13030;PMS7003;6582;54.644;9.760;2023-04-22T12:50:01;83.1;74.4;
13030;PMS7003;6582;54.644;9.760;2023-04-22T12:55:02;82.6;74.4;
13030;PMS7003;6582;54.644;9.760;2023-04-22T13:00:01;82.6;74.0;
13030;PMS7003;6582;54.644;9.760;2023-04-22T13:05:01;82.2;73.6;
13030;PMS7003;6582;54.644;9.760;2023-04-22T13:10:01;82.8;73.8;
13030;PMS7003;6582;54.644;9.760;2023-04-22T13:15:01;82.1;73.7;
13030;PMS7003;6582;54.644;9.760;2023-04-22T13:20:01;84.0;75.4;
13030;PMS7003;6582;54.644;9.760;2023-04-22T13:25:01;83.4;75.2;
13030;PMS7003;6582;54.644;9.760;2023-04-22T13:30:02;82.5;74.2;
13030;PMS7003;6582;54.644;9.760;2023-04-22T13:35:03;82.2;74.1;
13030;PMS7003;6582;54.644;9.760;2023-04-22T13:40:02;84.0;75.4;
13030;PMS7003;6582;54.644;9.760;2023-04-22T13:45:01;85.3;76.6;
13030;PMS7003;6582;54.644;9.760;2023-04-22T13:50:01;87.4;78.3;
13030;PMS7003;6582;54.644;9.760;2023-04-22T13:55:06;89.7;81.1;
13030;PMS7003;6582;54.644;9.760;2023-04-22T14:00:06;92.4;83.4;
13030;PMS7003;6582;54.644;9.760;2023-04-22T14:05:01;92.7;83.7;
13030;PMS7003;6582;54.644;9.760;2023-04-22T14:10:01;90.7;82.0;
13030;PMS7003;6582;54.644;9.760;2023-04-22T14:15:01;90.0;81.3;
13030;PMS7003;6582;54.644;9.760;2023-04-22T14:20:01;89.0;79.8;
13030;PMS7003;6582;54.644;9.760;2023-04-22T14:25:01;87.0;78.6;
13030;PMS7003;6582;54.644;9.760;2023-04-22T14:30:01;86.2;77.6;
13030;PMS7003;6582;54.644;9.760;2023-04-22T14:35:01;84.6;76.0;
13030;PMS7003;6582;54.644;9.760;2023-04-22T14:40:02;87.2;78.8;
13030;PMS7003;6582;54.644;9.760;2023-04-22T14:45:01;87.3;79.3;
13030;PMS7003;6582;54.644;9.760;2023-04-22T14:50:01;85.8;78.0;
13030;PMS7003;6582;54.644;9.760;2023-04-22T14:55:25;86.2;78.6;
13030;PMS7003;6582;54.644;9.760;2023-04-22T15:00:03;87.4;79.9;
13030;PMS7003;6582;54.644;9.760;2023-04-22T15:05:01;83.1;75.7;
13030;PMS7003;6582;54.644;9.760;2023-04-22T15:10:02;81.8;74.1;
13030;PMS7003;6582;54.644;9.760;2023-04-22T15:15:01;81.4;73.6;
13030;PMS7003;6582;54.644;9.760;2023-04-22T15:20:01;79.9;72.6;
13030;PMS7003;6582;54.644;9.760;2023-04-22T15:25:02;79.1;71.4;
13030;PMS7003;6582;54.644;9.760;2023-04-22T15:30:01;79.5;71.6;
13030;PMS7003;6582;54.644;9.760;2023-04-22T15:35:02;80.6;73.1;
13030;PMS7003;6582;54.644;9.760;2023-04-22T15:40:01;82.6;75.0;
13030;PMS7003;6582;54.644;9.760;2023-04-22T15:45:05;86.8;78.3;
13030;PMS7003;6582;54.644;9.760;2023-04-22T15:50:02;89.8;81.3;
13030;PMS7003;6582;54.644;9.760;2023-04-22T15:55:06;90.2;81.8;
13030;PMS7003;6582;54.644;9.760;2023-04-22T16:00:18;89.7;81.3;
13030;PMS7003;6582;54.644;9.760;2023-04-22T16:05:01;88.9;80.8;
13030;PMS7003;6582;54.644;9.760;2023-04-22T16:10:07;84.8;77.3;
13030;PMS7003;6582;54.644;9.760;2023-04-22T16:15:02;82.5;75.2;
13030;PMS7003;6582;54.644;9.760;2023-04-22T16:20:02;82.6;75.2;
13030;PMS7003;6582;54.644;9.760;2023-04-22T16:25:01;82.5;75.2;
13030;PMS7003;6582;54.644;9.760;2023-04-22T16:30:01;82.9;75.6;
13030;PMS7003;6582;54.644;9.760;2023-04-22T16:35:06;84.8;77.4;
13030;PMS7003;6582;54.644;9.760;2023-04-22T16:40:03;86.9;79.5;
13030;PMS7003;6582;54.644;9.760;2023-04-22T16:45:01;89.3;81.9;
13030;PMS7003;6582;54.644;9.760;2023-04-22T16:50:11;91.2;83.3;
13030;PMS7003;6582;54.644;9.760;2023-04-22T16:55:11;90.6;82.8;
13030;PMS7003;6582;54.644;9.760;2023-04-22T17:00:01;88.2;80.3;
13030;PMS7003;6582;54.644;9.760;2023-04-22T17:05:06;85.3;77.9;
13030;PMS7003;6582;54.644;9.760;2023-04-22T17:10:02;81.5;74.3;
13030;PMS7003;6582;54.644;9.760;2023-04-22T17:15:07;78.1;71.7;
13030;PMS7003;6582;54.644;9.760;2023-04-22T17:20:01;77.0;70.8;
13030;PMS7003;6582;54.644;9.760;2023-04-22T17:25:01;77.4;71.9;
13030;PMS7003;6582;54.644;9.760;2023-04-22T17:30:02;79.9;74.6;
13030;PMS7003;6582;54.644;9.760;2023-04-22T17:35:06;86.8;82.4;
13030;PMS7003;6582;54.644;9.760;2023-04-22T17:40:06;94.5;91.1;
13030;PMS7003;6582;54.644;9.760;2023-04-22T17:45:02;104.7;102.0;
13030;PMS7003;6582;54.644;9.760;2023-04-22T17:50:06;114.0;111.6;
13030;PMS7003;6582;54.644;9.760;2023-04-22T17:55:06;118.0;116.2;
13030;PMS7003;6582;54.644;9.760;2023-04-22T18:00:01;120.0;117.9;
13030;PMS7003;6582;54.644;9.760;2023-04-22T18:10:06;116.8;114.2;
13030;PMS7003;6582;54.644;9.760;2023-04-22T18:15:01;115.3;112.0;
13030;PMS7003;6582;54.644;9.760;2023-04-22T18:20:16;116.2;112.2;
13030;PMS7003;6582;54.644;9.760;2023-04-22T18:25:01;111.8;107.4;
13030;PMS7003;6582;54.644;9.760;2023-04-22T18:30:01;104.8;99.2;
13030;PMS7003;6582;54.644;9.760;2023-04-22T18:35:06;98.6;93.0;
13030;PMS7003;6582;54.644;9.760;2023-04-22T18:40:02;91.8;86.9;
13030;PMS7003;6582;54.644;9.760;2023-04-22T18:45:10;87.5;83.2;
13030;PMS7003;6582;54.644;9.760;2023-04-22T18:50:01;87.4;83.8;
13030;PMS7003;6582;54.644;9.760;2023-04-22T18:55:01;93.0;90.6;
13030;PMS7003;6582;54.644;9.760;2023-04-22T19:00:01;100.4;98.1;
13030;PMS7003;6582;54.644;9.760;2023-04-22T19:05:01;108.0;105.3;
13030;PMS7003;6582;54.644;9.760;2023-04-22T19:10:01;114.8;112.1;
13030;PMS7003;6582;54.644;9.760;2023-04-22T19:15:06;123.4;119.7;
13030;PMS7003;6582;54.644;9.760;2023-04-22T19:20:01;126.2;122.6;
13030;PMS7003;6582;54.644;9.760;2023-04-22T19:25:01;125.8;122.7;
13030;PMS7003;6582;54.644;9.760;2023-04-22T19:30:02;126.0;123.1;
13030;PMS7003;6582;54.644;9.760;2023-04-22T19:35:05;125.6;122.5;
13030;PMS7003;6582;54.644;9.760;2023-04-22T19:40:01;122.3;119.0;
13030;PMS7003;6582;54.644;9.760;2023-04-22T19:45:01;122.1;118.4;
13030;PMS7003;6582;54.644;9.760;2023-04-22T19:50:02;120.1;115.4;
13030;PMS7003;6582;54.644;9.760;2023-04-22T19:55:03;114.2;108.3;
13030;PMS7003;6582;54.644;9.760;2023-04-22T20:00:01;115.4;109.4;
13030;PMS7003;6582;54.644;9.760;2023-04-22T20:05:01;105.4;98.9;
13030;PMS7003;6582;54.644;9.760;2023-04-22T20:10:03;94.8;86.6;
13030;PMS7003;6582;54.644;9.760;2023-04-22T20:15:06;87.1;77.8;
13030;PMS7003;6582;54.644;9.760;2023-04-22T20:20:01;84.8;75.8;
13030;PMS7003;6582;54.644;9.760;2023-04-22T20:25:03;74.2;64.6;
13030;PMS7003;6582;54.644;9.760;2023-04-22T20:30:02;75.0;66.1;
13030;PMS7003;6582;54.644;9.760;2023-04-22T20:35:02;75.6;66.9;
13030;PMS7003;6582;54.644;9.760;2023-04-22T20:40:01;76.4;67.4;
13030;PMS7003;6582;54.644;9.760;2023-04-22T20:45:06;75.9;66.6;
13030;PMS7003;6582;54.644;9.760;2023-04-22T20:50:03;76.4;66.7;
13030;PMS7003;6582;54.644;9.760;2023-04-22T20:55:01;75.2;64.0;
13030;PMS7003;6582;54.644;9.760;2023-04-22T21:00:01;75.2;63.9;
13030;PMS7003;6582;54.644;9.760;2023-04-22T21:05:02;75.5;64.0;
13030;PMS7003;6582;54.644;9.760;2023-04-22T21:10:06;75.1;63.6;
13030;PMS7003;6582;54.644;9.760;2023-04-22T21:15:01;73.8;61.4;
13030;PMS7003;6582;54.644;9.760;2023-04-22T21:20:02;73.6;61.5;
13030;PMS7003;6582;54.644;9.760;2023-04-22T21:25:01;73.7;61.5;
13030;PMS7003;6582;54.644;9.760;2023-04-22T21:30:01;73.8;61.4;
13030;PMS7003;6582;54.644;9.760;2023-04-22T21:35:02;73.6;60.8;
13030;PMS7003;6582;54.644;9.760;2023-04-22T21:40:01;74.0;61.5;
13030;PMS7003;6582;54.644;9.760;2023-04-22T21:45:06;74.4;62.4;
13030;PMS7003;6582;54.644;9.760;2023-04-22T21:50:06;75.3;64.4;
13030;PMS7003;6582;54.644;9.760;2023-04-22T21:55:06;76.4;65.8;
13030;PMS7003;6582;54.644;9.760;2023-04-22T22:00:01;76.6;66.4;
13030;PMS7003;6582;54.644;9.760;2023-04-22T22:05:01;77.1;67.4;
13030;PMS7003;6582;54.644;9.760;2023-04-22T22:10:01;78.0;68.7;
13030;PMS7003;6582;54.644;9.760;2023-04-22T22:15:01;78.0;68.4;
13030;PMS7003;6582;54.644;9.760;2023-04-22T22:20:01;78.9;70.2;
13030;PMS7003;6582;54.644;9.760;2023-04-22T22:25:01;79.3;70.6;
13030;PMS7003;6582;54.644;9.760;2023-04-22T22:30:01;79.6;71.2;
13030;PMS7003;6582;54.644;9.760;2023-04-22T22:35:01;80.4;72.1;
13030;PMS7003;6582;54.644;9.760;2023-04-22T22:40:02;80.1;71.0;
13030;PMS7003;6582;54.644;9.760;2023-04-22T22:45:01;79.0;69.0;
13030;PMS7003;6582;54.644;9.760;2023-04-22T22:50:01;78.4;67.8;
13030;PMS7003;6582;54.644;9.760;2023-04-22T22:55:01;77.7;65.8;
13030;PMS7003;6582;54.644;9.760;2023-04-22T23:00:02;76.6;63.7;
13030;PMS7003;6582;54.644;9.760;2023-04-22T23:05:07;77.4;64.3;
13030;PMS7003;6582;54.644;9.760;2023-04-22T23:10:01;77.7;64.3;
13030;PMS7003;6582;54.644;9.760;2023-04-22T23:15:01;78.0;64.9;
13030;PMS7003;6582;54.644;9.760;2023-04-22T23:20:01;77.8;64.6;
13030;PMS7003;6582;54.644;9.760;2023-04-22T23:25:01;77.4;64.2;
13030;PMS7003;6582;54.644;9.760;2023-04-22T23:30:06;77.4;63.7;
13030;PMS7003;6582;54.644;9.760;2023-04-22T23:35:01;76.7;62.9;
13030;PMS7003;6582;54.644;9.760;2023-04-22T23:40:02;76.1;62.0;
13030;PMS7003;6582;54.644;9.760;2023-04-22T23:45:06;75.7;62.0;
13030;PMS7003;6582;54.644;9.760;2023-04-22T23:50:01;76.0;62.3;
13030;PMS7003;6582;54.644;9.760;2023-04-22T23:55:01;75.2;62.4;
